sensor_id;sensor_type;location;lat;lon;timestamp;P1;durP1;ratioP1;P2;durP2;ratioP2
79410;SDS011;69635;50.964;6.948;2023-07-02T00:01:26;4.10;;;1.93;;
79410;SDS011;69635;50.964;6.948;2023-07-02T00:03:51;5.60;;;1.80;;
79410;SDS011;69635;50.964;6.948;2023-07-02T00:06:16;5.40;;;2.00;;
79410;SDS011;69635;50.964;6.948;2023-07-02T00:08:42;5.75;;;1.95;;
79410;SDS011;69635;50.964;6.948;2023-07-02T00:11:07;4.43;;;1.93;;
79410;SDS011;69635;50.964;6.948;2023-07-02T00:13:37;6.75;;;2.10;;
79410;SDS011;69635;50.964;6.948;2023-07-02T00:16:02;6.15;;;2.03;;
79410;SDS011;69635;50.964;6.948;2023-07-02T00:18:28;7.40;;;2.13;;
79410;SDS011;69635;50.964;6.948;2023-07-02T00:20:58;4.15;;;2.15;;
79410;SDS011;69635;50.964;6.948;2023-07-02T00:23:23;10.07;;;2.13;;
79410;SDS011;69635;50.964;6.948;2023-07-02T00:25:49;4.00;;;1.90;;
79410;SDS011;69635;50.964;6.948;2023-07-02T00:28:14;7.00;;;1.87;;
79410;SDS011;69635;50.964;6.948;2023-07-02T00:30:39;4.80;;;2.07;;
79410;SDS011;69635;50.964;6.948;2023-07-02T00:33:04;5.95;;;1.67;;
79410;SDS011;69635;50.964;6.948;2023-07-02T00:35:30;4.93;;;1.73;;
79410;SDS011;69635;50.964;6.948;2023-07-02T00:37:55;7.95;;;2.30;;
79410;SDS011;69635;50.964;6.948;2023-07-02T00:40:20;5.57;;;2.87;;
79410;SDS011;69635;50.964;6.948;2023-07-02T00:42:45;6.32;;;2.05;;
79410;SDS011;69635;50.964;6.948;2023-07-02T00:45:11;4.53;;;1.70;;
79410;SDS011;69635;50.964;6.948;2023-07-02T00:47:36;5.30;;;2.47;;
79410;SDS011;69635;50.964;6.948;2023-07-02T00:50:02;7.25;;;2.33;;
79410;SDS011;69635;50.964;6.948;2023-07-02T00:52:27;4.78;;;1.90;;
79410;SDS011;69635;50.964;6.948;2023-07-02T00:54:52;5.87;;;1.90;;
79410;SDS011;69635;50.964;6.948;2023-07-02T00:57:18;5.03;;;2.57;;
79410;SDS011;69635;50.964;6.948;2023-07-02T00:59:43;6.32;;;3.05;;
79410;SDS011;69635;50.964;6.948;2023-07-02T01:02:09;5.40;;;2.30;;
79410;SDS011;69635;50.964;6.948;2023-07-02T01:04:34;6.63;;;2.20;;
79410;SDS011;69635;50.964;6.948;2023-07-02T01:06:59;8.57;;;2.77;;
79410;SDS011;69635;50.964;6.948;2023-07-02T01:09:25;8.40;;;2.30;;
79410;SDS011;69635;50.964;6.948;2023-07-02T01:11:55;4.13;;;1.90;;
79410;SDS011;69635;50.964;6.948;2023-07-02T01:16:53;6.03;;;2.00;;
79410;SDS011;69635;50.964;6.948;2023-07-02T01:19:21;7.32;;;2.28;;
79410;SDS011;69635;50.964;6.948;2023-07-02T01:21:47;4.35;;;2.17;;
79410;SDS011;69635;50.964;6.948;2023-07-02T01:24:13;7.05;;;2.13;;
79410;SDS011;69635;50.964;6.948;2023-07-02T01:26:39;7.35;;;2.40;;
79410;SDS011;69635;50.964;6.948;2023-07-02T01:29:17;9.45;;;2.85;;
79410;SDS011;69635;50.964;6.948;2023-07-02T01:31:43;5.47;;;3.20;;
79410;SDS011;69635;50.964;6.948;2023-07-02T01:34:08;9.60;;;3.00;;
79410;SDS011;69635;50.964;6.948;2023-07-02T01:36:34;5.95;;;2.85;;
79410;SDS011;69635;50.964;6.948;2023-07-02T01:38:59;9.63;;;3.08;;
79410;SDS011;69635;50.964;6.948;2023-07-02T01:41:24;6.70;;;3.10;;
79410;SDS011;69635;50.964;6.948;2023-07-02T01:43:50;6.40;;;2.60;;
79410;SDS011;69635;50.964;6.948;2023-07-02T01:46:15;8.53;;;3.80;;
79410;SDS011;69635;50.964;6.948;2023-07-02T01:48:40;9.00;;;3.40;;
79410;SDS011;69635;50.964;6.948;2023-07-02T01:51:05;8.93;;;3.47;;
79410;SDS011;69635;50.964;6.948;2023-07-02T01:53:31;8.18;;;3.38;;
79410;SDS011;69635;50.964;6.948;2023-07-02T01:55:56;8.40;;;3.23;;
79410;SDS011;69635;50.964;6.948;2023-07-02T01:58:21;7.40;;;3.27;;
79410;SDS011;69635;50.964;6.948;2023-07-02T02:00:47;9.70;;;3.53;;
79410;SDS011;69635;50.964;6.948;2023-07-02T02:03:12;9.48;;;3.65;;
79410;SDS011;69635;50.964;6.948;2023-07-02T02:05:37;13.83;;;4.60;;
79410;SDS011;69635;50.964;6.948;2023-07-02T02:08:03;10.68;;;4.13;;
79410;SDS011;69635;50.964;6.948;2023-07-02T02:10:28;12.88;;;4.78;;
79410;SDS011;69635;50.964;6.948;2023-07-02T02:12:53;7.80;;;3.70;;
79410;SDS011;69635;50.964;6.948;2023-07-02T02:15:19;11.07;;;3.80;;
79410;SDS011;69635;50.964;6.948;2023-07-02T02:17:44;10.53;;;3.77;;
79410;SDS011;69635;50.964;6.948;2023-07-02T02:20:10;11.88;;;4.60;;
79410;SDS011;69635;50.964;6.948;2023-07-02T02:22:35;10.85;;;4.47;;
79410;SDS011;69635;50.964;6.948;2023-07-02T02:25:01;15.52;;;4.85;;
79410;SDS011;69635;50.964;6.948;2023-07-02T02:27:26;12.53;;;4.30;;
79410;SDS011;69635;50.964;6.948;2023-07-02T02:29:51;11.98;;;4.95;;
79410;SDS011;69635;50.964;6.948;2023-07-02T02:32:17;13.83;;;4.50;;
79410;SDS011;69635;50.964;6.948;2023-07-02T02:34:44;12.55;;;4.65;;
79410;SDS011;69635;50.964;6.948;2023-07-02T02:37:09;12.57;;;4.17;;
79410;SDS011;69635;50.964;6.948;2023-07-02T02:39:35;10.67;;;4.30;;
79410;SDS011;69635;50.964;6.948;2023-07-02T02:42:00;15.37;;;4.83;;
79410;SDS011;69635;50.964;6.948;2023-07-02T02:44:25;9.40;;;4.50;;
79410;SDS011;69635;50.964;6.948;2023-07-02T02:46:50;18.40;;;4.95;;
79410;SDS011;69635;50.964;6.948;2023-07-02T02:49:16;16.63;;;5.40;;
79410;SDS011;69635;50.964;6.948;2023-07-02T02:51:41;15.37;;;4.77;;
79410;SDS011;69635;50.964;6.948;2023-07-02T02:54:06;10.90;;;4.70;;
79410;SDS011;69635;50.964;6.948;2023-07-02T02:56:31;15.37;;;5.10;;
79410;SDS011;69635;50.964;6.948;2023-07-02T02:58:57;10.63;;;4.33;;
79410;SDS011;69635;50.964;6.948;2023-07-02T03:01:22;13.07;;;4.97;;
79410;SDS011;69635;50.964;6.948;2023-07-02T03:03:47;12.70;;;5.57;;
79410;SDS011;69635;50.964;6.948;2023-07-02T03:06:13;11.93;;;4.90;;
79410;SDS011;69635;50.964;6.948;2023-07-02T03:08:39;15.35;;;5.63;;
79410;SDS011;69635;50.964;6.948;2023-07-02T03:11:04;14.50;;;5.87;;
79410;SDS011;69635;50.964;6.948;2023-07-02T03:13:30;14.33;;;5.10;;
79410;SDS011;69635;50.964;6.948;2023-07-02T03:15:55;15.97;;;5.67;;
79410;SDS011;69635;50.964;6.948;2023-07-02T03:18:20;11.00;;;5.70;;
79410;SDS011;69635;50.964;6.948;2023-07-02T03:20:45;15.93;;;5.50;;
79410;SDS011;69635;50.964;6.948;2023-07-02T03:23:11;14.13;;;5.73;;
79410;SDS011;69635;50.964;6.948;2023-07-02T03:25:38;18.47;;;6.30;;
79410;SDS011;69635;50.964;6.948;2023-07-02T03:28:03;13.90;;;5.85;;
79410;SDS011;69635;50.964;6.948;2023-07-02T03:30:28;13.57;;;4.90;;
79410;SDS011;69635;50.964;6.948;2023-07-02T03:32:54;17.07;;;5.57;;
79410;SDS011;69635;50.964;6.948;2023-07-02T03:35:19;17.10;;;5.93;;
79410;SDS011;69635;50.964;6.948;2023-07-02T03:37:45;13.40;;;5.53;;
79410;SDS011;69635;50.964;6.948;2023-07-02T03:40:11;17.67;;;6.40;;
79410;SDS011;69635;50.964;6.948;2023-07-02T03:42:36;12.50;;;5.43;;
79410;SDS011;69635;50.964;6.948;2023-07-02T03:45:01;18.53;;;6.33;;
79410;SDS011;69635;50.964;6.948;2023-07-02T03:47:28;14.13;;;5.50;;
79410;SDS011;69635;50.964;6.948;2023-07-02T03:49:53;16.10;;;5.23;;
79410;SDS011;69635;50.964;6.948;2023-07-02T03:52:19;16.80;;;6.30;;
79410;SDS011;69635;50.964;6.948;2023-07-02T03:54:44;12.67;;;5.83;;
79410;SDS011;69635;50.964;6.948;2023-07-02T03:57:09;13.45;;;5.10;;
79410;SDS011;69635;50.964;6.948;2023-07-02T03:59:34;17.03;;;6.63;;
79410;SDS011;69635;50.964;6.948;2023-07-02T04:02:00;15.95;;;6.28;;
79410;SDS011;69635;50.964;6.948;2023-07-02T04:04:25;12.70;;;5.88;;
79410;SDS011;69635;50.964;6.948;2023-07-02T04:06:50;16.07;;;6.47;;
79410;SDS011;69635;50.964;6.948;2023-07-02T04:09:16;15.67;;;6.63;;
79410;SDS011;69635;50.964;6.948;2023-07-02T04:11:43;14.65;;;6.13;;
79410;SDS011;69635;50.964;6.948;2023-07-02T04:14:08;14.93;;;6.47;;
79410;SDS011;69635;50.964;6.948;2023-07-02T04:16:33;19.13;;;6.83;;
79410;SDS011;69635;50.964;6.948;2023-07-02T04:18:59;16.10;;;7.07;;
79410;SDS011;69635;50.964;6.948;2023-07-02T04:21:24;18.20;;;6.37;;
79410;SDS011;69635;50.964;6.948;2023-07-02T04:23:49;17.63;;;6.80;;
79410;SDS011;69635;50.964;6.948;2023-07-02T04:26:15;18.55;;;7.18;;
79410;SDS011;69635;50.964;6.948;2023-07-02T04:28:40;16.20;;;7.00;;
79410;SDS011;69635;50.964;6.948;2023-07-02T04:31:05;16.17;;;7.10;;
79410;SDS011;69635;50.964;6.948;2023-07-02T04:33:30;17.47;;;8.23;;
79410;SDS011;69635;50.964;6.948;2023-07-02T04:36:01;18.45;;;6.82;;
79410;SDS011;69635;50.964;6.948;2023-07-02T04:38:26;18.20;;;7.38;;
79410;SDS011;69635;50.964;6.948;2023-07-02T04:40:52;17.30;;;6.88;;
79410;SDS011;69635;50.964;6.948;2023-07-02T04:43:17;18.35;;;7.55;;
79410;SDS011;69635;50.964;6.948;2023-07-02T04:45:43;16.85;;;7.10;;
79410;SDS011;69635;50.964;6.948;2023-07-02T04:48:09;21.27;;;6.95;;
79410;SDS011;69635;50.964;6.948;2023-07-02T04:50:34;19.43;;;7.13;;
79410;SDS011;69635;50.964;6.948;2023-07-02T04:53:00;19.98;;;7.72;;
79410;SDS011;69635;50.964;6.948;2023-07-02T04:55:25;18.65;;;7.53;;
79410;SDS011;69635;50.964;6.948;2023-07-02T04:57:51;15.53;;;7.13;;
79410;SDS011;69635;50.964;6.948;2023-07-02T05:00:18;20.20;;;8.73;;
79410;SDS011;69635;50.964;6.948;2023-07-02T05:02:43;19.15;;;7.03;;
79410;SDS011;69635;50.964;6.948;2023-07-02T05:05:09;18.75;;;8.05;;
79410;SDS011;69635;50.964;6.948;2023-07-02T05:07:34;16.50;;;6.88;;
79410;SDS011;69635;50.964;6.948;2023-07-02T05:09:59;22.43;;;8.07;;
79410;SDS011;69635;50.964;6.948;2023-07-02T05:12:25;22.60;;;8.03;;
79410;SDS011;69635;50.964;6.948;2023-07-02T05:14:51;20.75;;;8.68;;
79410;SDS011;69635;50.964;6.948;2023-07-02T05:17:16;23.80;;;8.77;;
79410;SDS011;69635;50.964;6.948;2023-07-02T05:19:42;19.63;;;8.88;;
79410;SDS011;69635;50.964;6.948;2023-07-02T05:22:08;22.08;;;7.90;;
79410;SDS011;69635;50.964;6.948;2023-07-02T05:24:33;18.80;;;7.05;;
79410;SDS011;69635;50.964;6.948;2023-07-02T05:26:58;21.27;;;8.70;;
79410;SDS011;69635;50.964;6.948;2023-07-02T05:29:24;16.43;;;7.80;;
79410;SDS011;69635;50.964;6.948;2023-07-02T05:31:50;21.63;;;7.63;;
79410;SDS011;69635;50.964;6.948;2023-07-02T05:34:15;21.55;;;8.93;;
79410;SDS011;69635;50.964;6.948;2023-07-02T05:36:41;21.87;;;8.87;;
79410;SDS011;69635;50.964;6.948;2023-07-02T05:39:06;26.98;;;9.00;;
79410;SDS011;69635;50.964;6.948;2023-07-02T05:41:31;23.92;;;8.80;;
79410;SDS011;69635;50.964;6.948;2023-07-02T05:44:00;24.90;;;8.68;;
79410;SDS011;69635;50.964;6.948;2023-07-02T05:46:25;21.35;;;7.65;;
79410;SDS011;69635;50.964;6.948;2023-07-02T05:48:51;17.65;;;7.40;;
79410;SDS011;69635;50.964;6.948;2023-07-02T05:51:20;21.13;;;8.93;;
79410;SDS011;69635;50.964;6.948;2023-07-02T05:56:10;17.20;;;7.88;;
79410;SDS011;69635;50.964;6.948;2023-07-02T05:58:35;21.13;;;8.47;;
79410;SDS011;69635;50.964;6.948;2023-07-02T06:01:00;22.80;;;7.93;;
79410;SDS011;69635;50.964;6.948;2023-07-02T06:03:26;21.20;;;8.60;;
79410;SDS011;69635;50.964;6.948;2023-07-02T06:05:51;21.80;;;9.10;;
79410;SDS011;69635;50.964;6.948;2023-07-02T06:08:17;23.57;;;9.40;;
79410;SDS011;69635;50.964;6.948;2023-07-02T06:10:45;21.83;;;8.27;;
79410;SDS011;69635;50.964;6.948;2023-07-02T06:13:11;22.50;;;9.43;;
79410;SDS011;69635;50.964;6.948;2023-07-02T06:15:36;24.02;;;9.30;;
79410;SDS011;69635;50.964;6.948;2023-07-02T06:18:01;24.05;;;8.23;;
79410;SDS011;69635;50.964;6.948;2023-07-02T06:20:27;22.13;;;8.40;;
79410;SDS011;69635;50.964;6.948;2023-07-02T06:22:52;24.20;;;9.87;;
79410;SDS011;69635;50.964;6.948;2023-07-02T06:25:17;17.75;;;7.47;;
79410;SDS011;69635;50.964;6.948;2023-07-02T06:27:43;20.30;;;7.95;;
79410;SDS011;69635;50.964;6.948;2023-07-02T06:30:08;19.70;;;9.23;;
79410;SDS011;69635;50.964;6.948;2023-07-02T06:32:33;21.88;;;8.15;;
79410;SDS011;69635;50.964;6.948;2023-07-02T06:34:59;20.77;;;9.02;;
79410;SDS011;69635;50.964;6.948;2023-07-02T06:37:24;22.20;;;7.67;;
79410;SDS011;69635;50.964;6.948;2023-07-02T06:39:49;20.10;;;9.60;;
79410;SDS011;69635;50.964;6.948;2023-07-02T06:42:16;23.48;;;7.78;;
79410;SDS011;69635;50.964;6.948;2023-07-02T06:44:41;24.40;;;8.60;;
79410;SDS011;69635;50.964;6.948;2023-07-02T06:47:08;27.65;;;8.02;;
79410;SDS011;69635;50.964;6.948;2023-07-02T06:49:34;24.27;;;8.57;;
79410;SDS011;69635;50.964;6.948;2023-07-02T06:51:59;15.80;;;7.27;;
79410;SDS011;69635;50.964;6.948;2023-07-02T06:54:25;19.92;;;7.65;;
79410;SDS011;69635;50.964;6.948;2023-07-02T06:56:51;27.75;;;8.13;;
79410;SDS011;69635;50.964;6.948;2023-07-02T06:59:19;20.33;;;8.60;;
79410;SDS011;69635;50.964;6.948;2023-07-02T07:01:45;18.80;;;8.00;;
79410;SDS011;69635;50.964;6.948;2023-07-02T07:04:10;18.75;;;9.00;;
79410;SDS011;69635;50.964;6.948;2023-07-02T07:06:36;21.10;;;8.43;;
79410;SDS011;69635;50.964;6.948;2023-07-02T07:09:02;21.30;;;8.93;;
79410;SDS011;69635;50.964;6.948;2023-07-02T07:11:27;26.33;;;8.73;;
79410;SDS011;69635;50.964;6.948;2023-07-02T07:13:53;20.30;;;8.98;;
79410;SDS011;69635;50.964;6.948;2023-07-02T07:16:18;20.42;;;8.35;;
79410;SDS011;69635;50.964;6.948;2023-07-02T07:18:44;22.20;;;7.77;;
79410;SDS011;69635;50.964;6.948;2023-07-02T07:21:09;20.13;;;8.98;;
79410;SDS011;69635;50.964;6.948;2023-07-02T07:23:34;23.00;;;8.67;;
79410;SDS011;69635;50.964;6.948;2023-07-02T07:26:00;24.08;;;8.82;;
79410;SDS011;69635;50.964;6.948;2023-07-02T07:28:25;19.03;;;9.00;;
79410;SDS011;69635;50.964;6.948;2023-07-02T07:30:51;22.00;;;8.63;;
79410;SDS011;69635;50.964;6.948;2023-07-02T07:33:26;15.88;;;6.82;;
79410;SDS011;69635;50.964;6.948;2023-07-02T07:35:54;16.83;;;7.30;;
79410;SDS011;69635;50.964;6.948;2023-07-02T07:38:23;19.35;;;9.10;;
79410;SDS011;69635;50.964;6.948;2023-07-02T07:40:51;18.27;;;7.22;;
79410;SDS011;69635;50.964;6.948;2023-07-02T07:43:16;18.23;;;7.90;;
79410;SDS011;69635;50.964;6.948;2023-07-02T07:45:42;21.52;;;7.15;;
79410;SDS011;69635;50.964;6.948;2023-07-02T07:48:07;22.37;;;7.80;;
79410;SDS011;69635;50.964;6.948;2023-07-02T07:50:33;19.77;;;6.68;;
79410;SDS011;69635;50.964;6.948;2023-07-02T07:52:58;15.00;;;6.78;;
79410;SDS011;69635;50.964;6.948;2023-07-02T07:55:24;19.98;;;7.43;;
79410;SDS011;69635;50.964;6.948;2023-07-02T07:57:49;16.30;;;6.07;;
79410;SDS011;69635;50.964;6.948;2023-07-02T08:00:14;15.73;;;6.38;;
79410;SDS011;69635;50.964;6.948;2023-07-02T08:02:40;14.57;;;6.63;;
79410;SDS011;69635;50.964;6.948;2023-07-02T08:05:06;17.58;;;7.30;;
79410;SDS011;69635;50.964;6.948;2023-07-02T08:07:32;16.52;;;7.10;;
79410;SDS011;69635;50.964;6.948;2023-07-02T08:09:58;20.98;;;6.80;;
79410;SDS011;69635;50.964;6.948;2023-07-02T08:12:23;18.08;;;6.93;;
79410;SDS011;69635;50.964;6.948;2023-07-02T08:14:49;17.58;;;6.75;;
79410;SDS011;69635;50.964;6.948;2023-07-02T08:17:14;21.25;;;7.20;;
79410;SDS011;69635;50.964;6.948;2023-07-02T08:19:40;14.57;;;6.57;;
79410;SDS011;69635;50.964;6.948;2023-07-02T08:22:08;17.85;;;6.88;;
79410;SDS011;69635;50.964;6.948;2023-07-02T08:24:33;20.15;;;7.25;;
79410;SDS011;69635;50.964;6.948;2023-07-02T08:26:59;16.95;;;7.20;;
79410;SDS011;69635;50.964;6.948;2023-07-02T08:29:24;20.30;;;6.55;;
79410;SDS011;69635;50.964;6.948;2023-07-02T08:31:49;20.80;;;6.73;;
79410;SDS011;69635;50.964;6.948;2023-07-02T08:34:15;23.43;;;7.10;;
79410;SDS011;69635;50.964;6.948;2023-07-02T08:36:40;19.20;;;7.03;;
79410;SDS011;69635;50.964;6.948;2023-07-02T08:39:07;15.00;;;6.78;;
79410;SDS011;69635;50.964;6.948;2023-07-02T08:41:41;13.52;;;6.22;;
79410;SDS011;69635;50.964;6.948;2023-07-02T08:44:07;14.35;;;5.38;;
79410;SDS011;69635;50.964;6.948;2023-07-02T08:46:32;16.85;;;6.22;;
79410;SDS011;69635;50.964;6.948;2023-07-02T08:48:58;16.52;;;6.72;;
79410;SDS011;69635;50.964;6.948;2023-07-02T08:51:23;14.18;;;6.25;;
79410;SDS011;69635;50.964;6.948;2023-07-02T08:53:49;15.63;;;6.35;;
79410;SDS011;69635;50.964;6.948;2023-07-02T08:56:16;13.63;;;6.38;;
79410;SDS011;69635;50.964;6.948;2023-07-02T08:58:42;16.13;;;5.90;;
79410;SDS011;69635;50.964;6.948;2023-07-02T09:01:11;18.58;;;6.05;;
79410;SDS011;69635;50.964;6.948;2023-07-02T09:03:37;12.90;;;5.65;;
79410;SDS011;69635;50.964;6.948;2023-07-02T09:06:03;14.05;;;6.80;;
79410;SDS011;69635;50.964;6.948;2023-07-02T09:08:29;12.68;;;5.65;;
79410;SDS011;69635;50.964;6.948;2023-07-02T09:11:04;18.35;;;6.43;;
79410;SDS011;69635;50.964;6.948;2023-07-02T09:13:41;19.25;;;6.80;;
79410;SDS011;69635;50.964;6.948;2023-07-02T09:16:07;15.57;;;6.22;;
79410;SDS011;69635;50.964;6.948;2023-07-02T09:18:33;15.15;;;5.38;;
79410;SDS011;69635;50.964;6.948;2023-07-02T09:21:01;16.88;;;6.00;;
79410;SDS011;69635;50.964;6.948;2023-07-02T09:26:46;19.55;;;7.80;;
79410;SDS011;69635;50.964;6.948;2023-07-02T09:29:12;12.23;;;6.18;;
79410;SDS011;69635;50.964;6.948;2023-07-02T09:31:46;17.58;;;6.47;;
79410;SDS011;69635;50.964;6.948;2023-07-02T09:34:26;17.17;;;7.22;;
79410;SDS011;69635;50.964;6.948;2023-07-02T09:36:51;15.10;;;7.28;;
79410;SDS011;69635;50.964;6.948;2023-07-02T09:39:19;15.73;;;6.50;;
79410;SDS011;69635;50.964;6.948;2023-07-02T09:41:44;21.15;;;7.80;;
79410;SDS011;69635;50.964;6.948;2023-07-02T09:44:10;15.60;;;7.30;;
79410;SDS011;69635;50.964;6.948;2023-07-02T09:46:37;16.70;;;6.65;;
79410;SDS011;69635;50.964;6.948;2023-07-02T09:49:13;18.98;;;7.55;;
79410;SDS011;69635;50.964;6.948;2023-07-02T09:51:39;13.32;;;6.10;;
79410;SDS011;69635;50.964;6.948;2023-07-02T09:54:07;15.23;;;6.50;;
79410;SDS011;69635;50.964;6.948;2023-07-02T09:56:33;18.33;;;6.93;;
79410;SDS011;69635;50.964;6.948;2023-07-02T09:59:10;17.30;;;7.28;;
79410;SDS011;69635;50.964;6.948;2023-07-02T10:01:38;25.27;;;8.00;;
79410;SDS011;69635;50.964;6.948;2023-07-02T10:04:12;14.00;;;6.07;;
79410;SDS011;69635;50.964;6.948;2023-07-02T10:06:52;17.75;;;7.25;;
79410;SDS011;69635;50.964;6.948;2023-07-02T10:09:21;14.23;;;6.53;;
79410;SDS011;69635;50.964;6.948;2023-07-02T10:11:48;17.30;;;6.90;;
79410;SDS011;69635;50.964;6.948;2023-07-02T10:14:17;16.67;;;7.45;;
79410;SDS011;69635;50.964;6.948;2023-07-02T10:16:56;16.85;;;6.22;;
79410;SDS011;69635;50.964;6.948;2023-07-02T10:19:25;18.52;;;6.35;;
79410;SDS011;69635;50.964;6.948;2023-07-02T10:24:56;17.58;;;7.80;;
79410;SDS011;69635;50.964;6.948;2023-07-02T10:27:42;14.73;;;6.57;;
79410;SDS011;69635;50.964;6.948;2023-07-02T10:30:10;9.77;;;4.70;;
79410;SDS011;69635;50.964;6.948;2023-07-02T10:32:40;15.57;;;6.28;;
79410;SDS011;69635;50.964;6.948;2023-07-02T10:35:18;13.75;;;6.55;;
79410;SDS011;69635;50.964;6.948;2023-07-02T10:37:43;13.93;;;6.68;;
79410;SDS011;69635;50.964;6.948;2023-07-02T10:40:12;17.05;;;6.60;;
79410;SDS011;69635;50.964;6.948;2023-07-02T10:42:50;17.23;;;6.45;;
79410;SDS011;69635;50.964;6.948;2023-07-02T10:45:15;17.95;;;6.68;;
79410;SDS011;69635;50.964;6.948;2023-07-02T10:47:44;17.33;;;7.90;;
79410;SDS011;69635;50.964;6.948;2023-07-02T10:50:19;15.88;;;6.32;;
79410;SDS011;69635;50.964;6.948;2023-07-02T10:52:46;11.77;;;5.80;;
79410;SDS011;69635;50.964;6.948;2023-07-02T10:55:18;17.20;;;7.28;;
79410;SDS011;69635;50.964;6.948;2023-07-02T10:57:47;16.67;;;6.32;;
79410;SDS011;69635;50.964;6.948;2023-07-02T11:00:13;14.52;;;6.05;;
79410;SDS011;69635;50.964;6.948;2023-07-02T11:02:38;16.98;;;6.63;;
79410;SDS011;69635;50.964;6.948;2023-07-02T11:05:04;15.93;;;6.65;;
79410;SDS011;69635;50.964;6.948;2023-07-02T11:07:31;14.57;;;6.45;;
79410;SDS011;69635;50.964;6.948;2023-07-02T11:09:56;13.90;;;5.53;;
79410;SDS011;69635;50.964;6.948;2023-07-02T11:12:29;14.65;;;6.05;;
79410;SDS011;69635;50.964;6.948;2023-07-02T11:14:54;17.17;;;6.32;;
79410;SDS011;69635;50.964;6.948;2023-07-02T11:17:24;15.23;;;6.82;;
79410;SDS011;69635;50.964;6.948;2023-07-02T11:19:50;19.83;;;6.82;;
79410;SDS011;69635;50.964;6.948;2023-07-02T11:22:18;12.63;;;6.18;;
79410;SDS011;69635;50.964;6.948;2023-07-02T11:24:43;17.13;;;6.07;;
79410;SDS011;69635;50.964;6.948;2023-07-02T11:27:09;15.25;;;6.97;;
79410;SDS011;69635;50.964;6.948;2023-07-02T11:29:34;14.30;;;6.10;;
79410;SDS011;69635;50.964;6.948;2023-07-02T11:32:06;15.52;;;6.60;;
79410;SDS011;69635;50.964;6.948;2023-07-02T11:34:32;15.85;;;7.03;;
79410;SDS011;69635;50.964;6.948;2023-07-02T11:36:57;16.95;;;6.88;;
79410;SDS011;69635;50.964;6.948;2023-07-02T11:39:23;14.25;;;5.40;;
79410;SDS011;69635;50.964;6.948;2023-07-02T11:41:49;14.98;;;6.53;;
79410;SDS011;69635;50.964;6.948;2023-07-02T11:44:15;16.00;;;6.20;;
79410;SDS011;69635;50.964;6.948;2023-07-02T11:46:40;18.27;;;6.88;;
79410;SDS011;69635;50.964;6.948;2023-07-02T11:49:06;15.07;;;6.47;;
79410;SDS011;69635;50.964;6.948;2023-07-02T11:51:33;13.75;;;5.78;;
79410;SDS011;69635;50.964;6.948;2023-07-02T11:54:00;16.65;;;6.20;;
79410;SDS011;69635;50.964;6.948;2023-07-02T11:56:25;15.65;;;6.45;;
79410;SDS011;69635;50.964;6.948;2023-07-02T11:58:50;11.40;;;4.50;;
79410;SDS011;69635;50.964;6.948;2023-07-02T12:01:16;17.92;;;6.25;;
79410;SDS011;69635;50.964;6.948;2023-07-02T12:03:41;18.52;;;6.35;;
79410;SDS011;69635;50.964;6.948;2023-07-02T12:06:07;9.63;;;4.28;;
79410;SDS011;69635;50.964;6.948;2023-07-02T12:08:33;15.93;;;5.38;;
79410;SDS011;69635;50.964;6.948;2023-07-02T12:10:58;14.98;;;5.82;;
79410;SDS011;69635;50.964;6.948;2023-07-02T12:13:23;16.63;;;5.63;;
79410;SDS011;69635;50.964;6.948;2023-07-02T12:15:49;14.20;;;6.70;;
79410;SDS011;69635;50.964;6.948;2023-07-02T12:18:16;12.15;;;4.57;;
79410;SDS011;69635;50.964;6.948;2023-07-02T12:20:41;13.75;;;5.22;;
79410;SDS011;69635;50.964;6.948;2023-07-02T12:23:07;10.55;;;4.88;;
79410;SDS011;69635;50.964;6.948;2023-07-02T12:25:32;12.73;;;3.90;;
79410;SDS011;69635;50.964;6.948;2023-07-02T12:27:57;9.93;;;4.47;;
79410;SDS011;69635;50.964;6.948;2023-07-02T12:30:23;9.53;;;4.60;;
79410;SDS011;69635;50.964;6.948;2023-07-02T12:32:48;8.73;;;3.83;;
79410;SDS011;69635;50.964;6.948;2023-07-02T12:35:13;8.50;;;3.95;;
79410;SDS011;69635;50.964;6.948;2023-07-02T12:37:42;12.10;;;3.97;;
79410;SDS011;69635;50.964;6.948;2023-07-02T12:40:08;10.60;;;4.70;;
79410;SDS011;69635;50.964;6.948;2023-07-02T12:42:34;8.82;;;4.20;;
79410;SDS011;69635;50.964;6.948;2023-07-02T12:44:59;9.77;;;4.68;;
79410;SDS011;69635;50.964;6.948;2023-07-02T12:47:24;11.30;;;4.00;;
79410;SDS011;69635;50.964;6.948;2023-07-02T12:49:50;7.67;;;3.37;;
79410;SDS011;69635;50.964;6.948;2023-07-02T12:52:15;10.30;;;4.13;;
79410;SDS011;69635;50.964;6.948;2023-07-02T12:54:40;9.90;;;4.20;;
79410;SDS011;69635;50.964;6.948;2023-07-02T12:57:06;10.90;;;4.37;;
79410;SDS011;69635;50.964;6.948;2023-07-02T12:59:31;11.82;;;4.13;;
79410;SDS011;69635;50.964;6.948;2023-07-02T13:01:56;10.00;;;4.47;;
79410;SDS011;69635;50.964;6.948;2023-07-02T13:04:22;15.03;;;5.27;;
79410;SDS011;69635;50.964;6.948;2023-07-02T13:06:47;10.83;;;4.47;;
79410;SDS011;69635;50.964;6.948;2023-07-02T13:09:12;10.77;;;4.47;;
79410;SDS011;69635;50.964;6.948;2023-07-02T13:11:37;11.70;;;4.60;;
79410;SDS011;69635;50.964;6.948;2023-07-02T13:14:03;12.35;;;4.93;;
79410;SDS011;69635;50.964;6.948;2023-07-02T13:16:28;14.77;;;5.60;;
79410;SDS011;69635;50.964;6.948;2023-07-02T13:18:54;14.65;;;5.70;;
79410;SDS011;69635;50.964;6.948;2023-07-02T13:21:21;16.73;;;5.00;;
79410;SDS011;69635;50.964;6.948;2023-07-02T13:23:47;14.23;;;5.43;;
79410;SDS011;69635;50.964;6.948;2023-07-02T13:26:12;13.23;;;5.00;;
79410;SDS011;69635;50.964;6.948;2023-07-02T13:28:37;9.20;;;4.33;;
79410;SDS011;69635;50.964;6.948;2023-07-02T13:31:02;11.18;;;5.10;;
79410;SDS011;69635;50.964;6.948;2023-07-02T13:33:28;11.77;;;5.30;;
79410;SDS011;69635;50.964;6.948;2023-07-02T13:35:54;15.00;;;5.43;;
79410;SDS011;69635;50.964;6.948;2023-07-02T13:38:19;15.50;;;5.93;;
79410;SDS011;69635;50.964;6.948;2023-07-02T13:40:44;12.23;;;4.43;;
79410;SDS011;69635;50.964;6.948;2023-07-02T13:43:09;14.83;;;4.47;;
79410;SDS011;69635;50.964;6.948;2023-07-02T13:45:38;12.47;;;5.23;;
79410;SDS011;69635;50.964;6.948;2023-07-02T13:48:03;10.48;;;4.70;;
79410;SDS011;69635;50.964;6.948;2023-07-02T13:50:30;14.88;;;5.90;;
79410;SDS011;69635;50.964;6.948;2023-07-02T13:52:55;15.07;;;5.60;;
79410;SDS011;69635;50.964;6.948;2023-07-02T13:55:20;12.20;;;5.85;;
79410;SDS011;69635;50.964;6.948;2023-07-02T13:57:51;13.38;;;5.32;;
79410;SDS011;69635;50.964;6.948;2023-07-02T14:00:16;17.83;;;6.32;;
79410;SDS011;69635;50.964;6.948;2023-07-02T14:02:42;14.63;;;5.43;;
79410;SDS011;69635;50.964;6.948;2023-07-02T14:05:07;13.20;;;5.70;;
79410;SDS011;69635;50.964;6.948;2023-07-02T14:07:32;10.73;;;4.88;;
79410;SDS011;69635;50.964;6.948;2023-07-02T14:09:58;16.67;;;5.80;;
79410;SDS011;69635;50.964;6.948;2023-07-02T14:12:23;16.50;;;5.60;;
79410;SDS011;69635;50.964;6.948;2023-07-02T14:14:48;12.63;;;5.37;;
79410;SDS011;69635;50.964;6.948;2023-07-02T14:17:13;13.60;;;5.78;;
79410;SDS011;69635;50.964;6.948;2023-07-02T14:19:39;14.67;;;5.33;;
79410;SDS011;69635;50.964;6.948;2023-07-02T14:22:04;14.10;;;6.00;;
79410;SDS011;69635;50.964;6.948;2023-07-02T14:24:29;15.55;;;5.35;;
79410;SDS011;69635;50.964;6.948;2023-07-02T14:26:55;13.75;;;5.18;;
79410;SDS011;69635;50.964;6.948;2023-07-02T14:29:20;17.13;;;6.88;;
79410;SDS011;69635;50.964;6.948;2023-07-02T14:31:46;12.47;;;5.20;;
79410;SDS011;69635;50.964;6.948;2023-07-02T14:34:11;12.03;;;5.63;;
79410;SDS011;69635;50.964;6.948;2023-07-02T14:36:36;14.77;;;5.68;;
79410;SDS011;69635;50.964;6.948;2023-07-02T14:39:01;14.13;;;5.37;;
79410;SDS011;69635;50.964;6.948;2023-07-02T14:41:27;10.67;;;4.60;;